createdAt,value
2023-04-16T00:02:14.823Z,91.69
2023-04-16T00:04:41.546Z,91.38
2023-04-16T00:07:08.220Z,91.62
2023-04-16T00:09:34.790Z,91.77
2023-04-16T00:12:01.381Z,91.02
2023-04-16T00:14:27.947Z,91.07
2023-04-16T00:16:54.469Z,91.39
2023-04-16T00:19:21.031Z,92.21
2023-04-16T00:21:47.605Z,92.06
2023-04-16T00:24:14.123Z,91.80
2023-04-16T00:26:41.038Z,91.68
2023-04-16T00:29:07.683Z,91.50
2023-04-16T00:31:34.620Z,91.92
2023-04-16T00:34:03.181Z,91.76
2023-04-16T00:36:29.803Z,92.21
2023-04-16T00:38:57.013Z,92.27
2023-04-16T00:41:23.868Z,92.91
2023-04-16T00:43:51.536Z,92.46
2023-04-16T00:46:21.087Z,92.14
2023-04-16T00:48:47.584Z,91.98
2023-04-16T00:51:14.483Z,92.62
2023-04-16T00:53:41.135Z,92.05
2023-04-16T00:56:07.759Z,92.54
2023-04-16T00:58:35.609Z,92.51
2023-04-16T01:01:02.487Z,92.63
2023-04-16T01:03:38.332Z,92.42
2023-04-16T01:06:06.398Z,92.76
2023-04-16T01:08:32.940Z,93.14
2023-04-16T01:11:01.105Z,92.54
2023-04-16T01:13:27.649Z,92.99
2023-04-16T01:15:54.240Z,92.88
2023-04-16T01:18:22.167Z,93.48
2023-04-16T01:20:50.764Z,92.55
2023-04-16T01:23:18.706Z,92.93
2023-04-16T01:25:46.274Z,93.36
2023-04-16T01:28:13.207Z,93.02
2023-04-16T01:30:39.771Z,93.66
2023-04-16T01:33:18.993Z,93.18
2023-04-16T01:35:46.719Z,92.94
2023-04-16T01:38:15.417Z,93.43
2023-04-16T01:40:41.953Z,93.57
2023-04-16T01:43:08.444Z,93.37
2023-04-16T01:45:35.546Z,93.58
2023-04-16T01:48:03.022Z,92.72
2023-04-16T01:50:30.824Z,92.61
2023-04-16T01:52:57.253Z,93.07
2023-04-16T01:55:23.730Z,92.75
2023-04-16T01:57:50.757Z,93.02
2023-04-16T02:00:17.273Z,92.70
2023-04-16T02:02:46.974Z,92.92
2023-04-16T02:05:19.632Z,93.39
2023-04-16T02:07:46.526Z,93.32
2023-04-16T02:10:12.974Z,93.42
2023-04-16T02:12:40.111Z,93.02
2023-04-16T02:15:07.370Z,92.73
2023-04-16T02:17:34.634Z,93.14
2023-04-16T02:20:09.477Z,93.17
2023-04-16T02:22:39.555Z,93.34
2023-04-16T02:25:06.448Z,92.87
2023-04-16T02:27:33.188Z,92.89
2023-04-16T02:30:15.727Z,92.69
2023-04-16T02:32:42.265Z,93.11
2023-04-16T02:35:08.958Z,92.33
2023-04-16T02:37:35.541Z,93.21
2023-04-16T02:40:02.161Z,93.71
2023-04-16T02:42:29.462Z,92.83
2023-04-16T02:44:56.262Z,92.79
2023-04-16T02:47:22.749Z,93.03
2023-04-16T02:49:49.505Z,93.02
2023-04-16T02:52:15.905Z,93.58
2023-04-16T02:54:42.343Z,92.58
2023-04-16T02:57:08.810Z,93.02
2023-04-16T02:59:35.519Z,93.27
2023-04-16T03:02:02.092Z,92.62
2023-04-16T03:04:28.794Z,93.00
2023-04-16T03:06:55.312Z,93.28
2023-04-16T03:09:21.765Z,93.46
2023-04-16T03:11:48.280Z,92.94
2023-04-16T03:14:16.669Z,93.55
2023-04-16T03:16:43.118Z,92.76
2023-04-16T03:19:09.869Z,93.08
2023-04-16T03:21:36.463Z,93.02
2023-04-16T03:24:02.976Z,93.65
2023-04-16T03:26:29.413Z,92.71
2023-04-16T03:28:55.926Z,93.50
2023-04-16T03:31:24.585Z,93.16
2023-04-16T03:33:51.716Z,92.95
2023-04-16T03:36:18.186Z,92.56
2023-04-16T03:38:44.821Z,92.95
2023-04-16T03:41:11.356Z,93.67
2023-04-16T03:43:37.806Z,93.37
2023-04-16T03:46:04.921Z,92.80
2023-04-16T03:48:31.725Z,93.25
2023-04-16T03:50:58.703Z,93.82
2023-04-16T03:53:25.338Z,93.24
2023-04-16T03:55:52.532Z,93.09
2023-04-16T03:58:20.197Z,92.79
2023-04-16T04:00:47.583Z,93.52
2023-04-16T04:03:18.910Z,93.82
2023-04-16T04:05:48.236Z,93.07
2023-04-16T04:08:19.960Z,92.80
2023-04-16T04:10:46.499Z,92.44
2023-04-16T04:13:14.220Z,92.64
2023-04-16T04:15:41.023Z,93.34
2023-04-16T04:18:07.578Z,92.60
2023-04-16T04:20:34.072Z,93.39
2023-04-16T04:23:01.848Z,93.00
2023-04-16T04:25:28.403Z,93.32
2023-04-16T04:27:54.912Z,93.93
2023-04-16T04:30:22.082Z,93.49
2023-04-16T04:32:48.638Z,94.24
2023-04-16T04:35:16.243Z,93.11
2023-04-16T04:37:42.784Z,93.11
2023-04-16T04:40:14.462Z,93.27
2023-04-16T04:42:40.972Z,93.28
2023-04-16T04:45:08.298Z,93.97
2023-04-16T04:47:35.473Z,93.66
2023-04-16T04:50:02.058Z,93.51
2023-04-16T04:52:29.595Z,93.39
2023-04-16T04:54:56.340Z,94.11
2023-04-16T04:57:22.824Z,93.90
2023-04-16T04:59:52.852Z,93.20
2023-04-16T05:02:19.688Z,93.71
2023-04-16T05:04:46.297Z,94.01
2023-04-16T05:07:12.748Z,93.91
2023-04-16T05:09:39.252Z,93.88
2023-04-16T05:12:05.896Z,94.45
2023-04-16T05:14:32.366Z,93.72
2023-04-16T05:16:58.901Z,94.08
2023-04-16T05:19:25.457Z,94.52
2023-04-16T05:21:51.888Z,94.34
2023-04-16T05:24:18.323Z,94.36
2023-04-16T05:26:44.872Z,93.75
2023-04-16T05:29:11.687Z,93.31
2023-04-16T05:31:38.813Z,93.77
2023-04-16T05:34:05.321Z,93.21
2023-04-16T05:36:31.848Z,93.77
2023-04-16T05:38:58.634Z,93.94
2023-04-16T05:41:25.513Z,93.70
2023-04-16T05:43:52.045Z,93.71
2023-04-16T05:46:18.543Z,93.74
2023-04-16T05:48:45.964Z,93.28
2023-04-16T05:51:12.874Z,93.30
2023-04-16T05:53:39.543Z,93.51
2023-04-16T05:56:06.419Z,93.54
2023-04-16T05:58:32.925Z,93.62
2023-04-16T06:01:01.109Z,93.69
2023-04-16T06:03:28.063Z,93.51
2023-04-16T06:05:54.655Z,93.28
2023-04-16T06:08:21.258Z,93.41
2023-04-16T06:10:48.250Z,93.82
2023-04-16T06:13:14.843Z,93.54
2023-04-16T06:15:41.349Z,93.61
2023-04-16T06:18:07.825Z,94.44
2023-04-16T06:20:34.403Z,93.69
2023-04-16T06:23:01.091Z,93.54
2023-04-16T06:25:27.491Z,94.21
2023-04-16T06:27:54.016Z,93.51
2023-04-16T06:30:20.968Z,93.71
2023-04-16T06:32:48.069Z,93.80
2023-04-16T06:35:16.864Z,94.14
2023-04-16T06:37:43.354Z,94.39
2023-04-16T06:40:10.557Z,94.30
2023-04-16T06:42:36.982Z,93.83
2023-04-16T06:45:03.727Z,93.51
2023-04-16T06:47:30.250Z,93.73
2023-04-16T06:49:56.891Z,93.91
2023-04-16T06:52:23.345Z,93.90
2023-04-16T06:54:49.801Z,94.02
2023-04-16T06:57:16.417Z,93.36
2023-04-16T06:59:42.968Z,93.59
2023-04-16T07:02:10.557Z,93.46
2023-04-16T07:04:37.592Z,94.01
2023-04-16T07:07:04.122Z,93.28
2023-04-16T07:09:32.651Z,93.74
2023-04-16T07:11:59.576Z,93.14
2023-04-16T07:14:26.244Z,93.31
2023-04-16T07:16:52.941Z,93.58
2023-04-16T07:19:19.417Z,94.26
2023-04-16T07:21:46.334Z,93.89
2023-04-16T07:24:14.070Z,93.19
2023-04-16T07:26:41.086Z,93.43
2023-04-16T07:29:07.801Z,93.88
2023-04-16T07:31:34.489Z,93.66
2023-04-16T07:34:01.107Z,93.58
2023-04-16T07:36:28.265Z,93.32
2023-04-16T07:38:54.757Z,93.07
2023-04-16T07:41:24.227Z,93.70
2023-04-16T07:43:54.885Z,93.63
2023-04-16T07:46:21.989Z,93.27
2023-04-16T07:48:48.493Z,92.88
2023-04-16T07:51:15.380Z,93.61
2023-04-16T07:53:43.396Z,92.91
2023-04-16T07:56:09.912Z,93.59
2023-04-16T07:58:36.497Z,92.75
2023-04-16T08:01:03.043Z,93.66
2023-04-16T08:03:30.089Z,93.41
2023-04-16T08:05:56.652Z,93.17
2023-04-16T08:08:23.086Z,93.02
2023-04-16T08:10:49.616Z,93.16
2023-04-16T08:13:16.081Z,92.61
2023-04-16T08:15:42.612Z,92.39
2023-04-16T08:18:12.994Z,92.43
2023-04-16T08:20:39.574Z,92.36
2023-04-16T08:23:06.154Z,92.46
2023-04-16T08:25:32.750Z,92.36
2023-04-16T08:27:59.491Z,92.22
2023-04-16T08:30:26.000Z,92.08
2023-04-16T08:32:52.921Z,91.42
2023-04-16T08:35:21.339Z,91.84
2023-04-16T08:37:47.746Z,91.99
2023-04-16T08:40:14.315Z,91.46
2023-04-16T08:42:45.849Z,91.86
2023-04-16T08:45:17.540Z,91.17
2023-04-16T08:47:54.693Z,90.84
2023-04-16T08:50:26.075Z,90.94
2023-04-16T08:52:56.572Z,91.28
2023-04-16T08:55:31.060Z,91.21
2023-04-16T08:58:02.705Z,91.01
2023-04-16T09:00:31.563Z,91.07
2023-04-16T09:02:58.826Z,90.89
2023-04-16T09:05:27.058Z,90.71
2023-04-16T09:07:54.591Z,90.68
2023-04-16T09:10:21.808Z,90.21
2023-04-16T09:12:48.216Z,90.30
2023-04-16T09:15:14.722Z,90.12
2023-04-16T09:17:41.415Z,89.95
2023-04-16T09:20:09.116Z,89.77
2023-04-16T09:22:39.987Z,90.14
2023-04-16T09:25:07.357Z,89.99
2023-04-16T09:27:34.135Z,89.79
2023-04-16T09:30:00.812Z,89.96
2023-04-16T09:32:28.732Z,89.82
2023-04-16T09:34:57.692Z,89.74
2023-04-16T09:37:26.050Z,89.40
2023-04-16T09:40:03.977Z,89.54
2023-04-16T09:42:32.866Z,89.41
2023-04-16T09:45:01.405Z,89.31
2023-04-16T09:47:45.800Z,88.81
2023-04-16T09:50:18.614Z,89.02
2023-04-16T09:52:51.916Z,89.02
2023-04-16T09:55:23.426Z,88.81
2023-04-16T09:57:58.889Z,88.56
2023-04-16T10:00:25.578Z,88.85
2023-04-16T10:03:03.985Z,89.01
2023-04-16T10:05:30.635Z,88.83
2023-04-16T10:08:01.173Z,89.08
2023-04-16T10:10:27.931Z,88.24
2023-04-16T10:12:57.917Z,88.73
2023-04-16T10:15:25.681Z,88.26
2023-04-16T10:17:55.846Z,88.20
2023-04-16T10:20:22.713Z,88.38
2023-04-16T10:22:49.603Z,88.20
2023-04-16T10:25:16.890Z,88.19
2023-04-16T10:27:44.410Z,87.86
2023-04-16T10:30:11.660Z,88.05
2023-04-16T10:32:38.471Z,88.15
2023-04-16T10:35:05.657Z,87.96
2023-04-16T10:37:32.703Z,87.95
2023-04-16T10:39:59.955Z,88.00
2023-04-16T10:42:27.505Z,88.44
2023-04-16T10:44:54.008Z,88.24
2023-04-16T10:47:24.848Z,88.33
2023-04-16T10:49:51.863Z,88.11
2023-04-16T10:52:18.525Z,88.02
2023-04-16T10:54:49.125Z,87.67
2023-04-16T10:57:19.568Z,87.73
2023-04-16T10:59:48.601Z,87.47
2023-04-16T11:02:21.142Z,87.33
2023-04-16T11:04:49.448Z,87.29
2023-04-16T11:07:17.852Z,87.99
2023-04-16T11:09:46.452Z,87.26
2023-04-16T11:12:15.285Z,87.11
2023-04-16T11:14:42.812Z,87.55
2023-04-16T11:17:10.260Z,87.00
2023-04-16T11:19:38.121Z,86.70
2023-04-16T11:22:05.356Z,86.43
2023-04-16T11:24:32.589Z,86.70
2023-04-16T11:26:59.308Z,86.56
2023-04-16T11:29:25.869Z,86.79
2023-04-16T11:31:53.881Z,86.70
2023-04-16T11:34:21.264Z,86.43
2023-04-16T11:36:51.472Z,86.48
2023-04-16T11:39:18.644Z,86.31
2023-04-16T11:41:46.127Z,85.98
2023-04-16T11:44:23.717Z,86.04
2023-04-16T11:46:51.357Z,85.68
2023-04-16T11:49:18.416Z,85.99
2023-04-16T11:51:46.789Z,86.10
2023-04-16T11:54:24.536Z,85.85
2023-04-16T11:56:54.823Z,85.92
2023-04-16T11:59:24.166Z,85.88
2023-04-16T12:01:52.826Z,85.86
2023-04-16T12:04:21.019Z,85.91
2023-04-16T12:07:12.774Z,85.91
2023-04-16T12:09:43.819Z,85.79
2023-04-16T12:12:31.130Z,85.61
2023-04-16T12:15:00.212Z,85.90
2023-04-16T12:17:26.895Z,85.64
2023-04-16T12:19:57.957Z,85.34
2023-04-16T12:22:36.776Z,85.01
2023-04-16T12:25:06.078Z,85.33
2023-04-16T12:27:41.902Z,85.43
2023-04-16T12:30:08.921Z,85.30
2023-04-16T12:32:35.508Z,85.22
2023-04-16T12:35:02.406Z,85.10
2023-04-16T12:37:30.671Z,85.06
2023-04-16T12:39:57.334Z,85.33
2023-04-16T12:42:23.784Z,85.02
2023-04-16T12:44:51.742Z,85.07
2023-04-16T12:47:18.375Z,85.07
2023-04-16T12:49:45.733Z,85.37
2023-04-16T12:52:12.562Z,85.09
2023-04-16T12:54:39.157Z,85.22
2023-04-16T12:57:08.554Z,85.09
2023-04-16T12:59:35.027Z,84.82
2023-04-16T13:02:02.518Z,85.01
2023-04-16T13:04:29.206Z,84.41
2023-04-16T13:06:55.928Z,84.55
2023-04-16T13:09:22.397Z,83.98
2023-04-16T13:11:48.891Z,84.05
2023-04-16T13:14:15.816Z,83.97
2023-04-16T13:16:43.287Z,83.85
2023-04-16T13:19:10.049Z,84.20
2023-04-16T13:21:36.989Z,83.83
2023-04-16T13:24:04.472Z,83.43
2023-04-16T13:26:31.005Z,83.82
2023-04-16T13:28:57.517Z,83.70
2023-04-16T13:31:24.499Z,83.54
2023-04-16T13:33:50.984Z,83.64
2023-04-16T13:36:17.486Z,83.81
2023-04-16T13:38:44.146Z,83.12
2023-04-16T13:41:11.275Z,83.09
2023-04-16T13:43:37.736Z,83.34
2023-04-16T13:46:04.436Z,82.96
2023-04-16T13:48:31.092Z,83.28
2023-04-16T13:50:57.534Z,83.58
2023-04-16T13:53:24.085Z,83.66
2023-04-16T13:55:52.183Z,83.49
2023-04-16T13:58:18.676Z,83.05
2023-04-16T14:00:45.392Z,83.15
2023-04-16T14:03:14.991Z,82.76
2023-04-16T14:05:43.369Z,83.19
2023-04-16T14:08:10.140Z,82.84
2023-04-16T14:10:38.723Z,82.95
2023-04-16T14:13:05.381Z,82.65
2023-04-16T14:15:31.887Z,82.44
2023-04-16T14:17:58.591Z,82.33
2023-04-16T14:20:25.347Z,82.03
2023-04-16T14:22:51.899Z,82.01
2023-04-16T14:25:18.473Z,81.55
2023-04-16T14:27:45.016Z,81.98
2023-04-16T14:30:11.619Z,81.28
2023-04-16T14:32:38.167Z,81.25
2023-04-16T14:35:05.442Z,81.90
2023-04-16T14:37:31.955Z,81.01
2023-04-16T14:39:58.626Z,81.02
2023-04-16T14:42:25.082Z,80.50
2023-04-16T14:44:52.181Z,80.55
2023-04-16T14:47:19.183Z,80.46
2023-04-16T14:49:45.617Z,81.02
2023-04-16T14:52:13.529Z,81.70
2023-04-16T14:54:40.039Z,81.23
2023-04-16T14:57:06.831Z,80.53
2023-04-16T14:59:33.494Z,80.50
2023-04-16T15:02:00.131Z,80.70
2023-04-16T15:04:26.993Z,79.63
2023-04-16T15:06:55.668Z,79.75
2023-04-16T15:09:27.043Z,80.12
2023-04-16T15:11:53.972Z,79.66
2023-04-16T15:14:21.649Z,80.16
2023-04-16T15:16:48.600Z,79.71
2023-04-16T15:19:15.121Z,80.01
2023-04-16T15:21:41.613Z,80.06
2023-04-16T15:24:08.502Z,78.99
2023-04-16T15:26:35.608Z,79.54
2023-04-16T15:29:02.185Z,79.34
2023-04-16T15:31:28.766Z,79.42
2023-04-16T15:33:56.120Z,79.51
2023-04-16T15:36:24.699Z,79.83
2023-04-16T15:38:51.218Z,79.89
2023-04-16T15:41:17.809Z,79.85
2023-04-16T15:43:45.001Z,79.72
2023-04-16T15:46:15.076Z,79.70
2023-04-16T15:48:41.583Z,80.27
2023-04-16T15:51:13.566Z,79.90
2023-04-16T15:53:45.558Z,79.93
2023-04-16T16:00:43.144Z,79.86
2023-04-16T16:03:14.791Z,80.00
2023-04-16T16:05:52.167Z,79.82
2023-04-16T16:08:50.836Z,79.81
2023-04-16T16:15:55.190Z,80.34
2023-04-16T16:18:24.994Z,80.63
2023-04-16T16:21:55.932Z,80.56
2023-04-16T16:24:51.848Z,80.77
2023-04-16T16:27:29.110Z,80.60
2023-04-16T16:29:55.809Z,80.75
2023-04-16T16:32:22.515Z,80.46
2023-04-16T16:35:01.509Z,80.21
2023-04-16T16:37:55.760Z,80.63
2023-04-16T16:40:34.965Z,80.42
2023-04-16T16:43:27.689Z,80.86
2023-04-16T16:45:57.041Z,80.69
2023-04-16T16:48:23.751Z,80.25
2023-04-16T16:50:53.332Z,80.34
2023-04-16T16:53:19.960Z,81.09
2023-04-16T16:55:47.471Z,80.88
2023-04-16T16:58:14.284Z,81.10
2023-04-16T17:00:52.505Z,81.37
2023-04-16T17:03:19.393Z,81.37
2023-04-16T17:09:12.999Z,81.48
2023-04-16T17:11:39.945Z,81.54
2023-04-16T17:15:09.242Z,81.69
2023-04-16T17:17:35.941Z,81.84
2023-04-16T17:20:34.497Z,82.41
2023-04-16T17:23:10.474Z,82.10
2023-04-16T17:25:39.067Z,82.23
2023-04-16T17:28:07.838Z,82.52
2023-04-16T17:30:59.597Z,82.71
2023-04-16T17:33:26.139Z,82.56
2023-04-16T17:35:52.672Z,82.79
2023-04-16T17:38:19.132Z,82.86
2023-04-16T17:40:45.638Z,82.88
2023-04-16T17:43:12.195Z,83.29
2023-04-16T17:45:41.711Z,82.99
2023-04-16T17:48:08.352Z,83.20
2023-04-16T17:50:35.712Z,83.10
2023-04-16T17:53:03.905Z,83.15
2023-04-16T17:55:31.254Z,83.30
2023-04-16T17:58:05.312Z,83.52
2023-04-16T18:00:31.796Z,83.49
2023-04-16T18:02:59.794Z,83.79
2023-04-16T18:05:27.364Z,83.65
2023-04-16T18:07:55.380Z,83.68
2023-04-16T18:10:21.930Z,83.88
2023-04-16T18:12:48.560Z,84.32
2023-04-16T18:16:07.680Z,83.96
2023-04-16T18:18:34.449Z,84.16
2023-04-16T18:21:03.908Z,84.69
2023-04-16T18:23:32.243Z,84.41
2023-04-16T18:25:58.668Z,84.58
2023-04-16T18:28:27.191Z,84.77
2023-04-16T18:30:53.767Z,85.20
2023-04-16T18:33:48.848Z,85.11
2023-04-16T18:38:59.956Z,85.54
2023-04-16T18:41:27.938Z,85.54
2023-04-16T18:43:54.524Z,85.44
2023-04-16T18:46:21.122Z,85.70
2023-04-16T18:48:48.310Z,85.54
2023-04-16T18:51:16.303Z,85.49
2023-04-16T18:53:44.193Z,85.71
2023-04-16T18:56:11.626Z,85.84
2023-04-16T18:58:38.178Z,86.25
2023-04-16T19:01:05.240Z,86.11
2023-04-16T19:03:33.738Z,85.65
2023-04-16T19:06:00.376Z,85.97
2023-04-16T19:08:27.109Z,86.35
2023-04-16T19:10:53.555Z,86.43
2023-04-16T19:13:20.105Z,86.42
2023-04-16T19:15:46.635Z,86.26
2023-04-16T19:18:14.285Z,86.55
2023-04-16T19:20:40.905Z,86.50
2023-04-16T19:23:09.163Z,86.38
2023-04-16T19:25:38.762Z,86.30
2023-04-16T19:28:05.474Z,86.68
2023-04-16T19:30:32.014Z,86.67
2023-04-16T19:32:58.682Z,86.81
2023-04-16T19:35:25.411Z,86.95
2023-04-16T19:37:51.913Z,87.21
2023-04-16T19:40:18.650Z,86.44
2023-04-16T19:42:45.297Z,86.46
2023-04-16T19:45:11.770Z,86.61
2023-04-16T19:47:38.249Z,86.31
2023-04-16T19:50:05.063Z,86.77
2023-04-16T19:52:37.266Z,86.76
2023-04-16T19:55:04.176Z,87.21
2023-04-16T19:57:30.649Z,86.91
2023-04-16T19:59:57.474Z,86.76
2023-04-16T20:02:24.030Z,87.46
2023-04-16T20:04:52.856Z,87.67
2023-04-16T20:07:20.395Z,87.25
2023-04-16T20:09:46.818Z,87.97
2023-04-16T20:12:14.600Z,87.96
2023-04-16T20:14:41.913Z,87.52
2023-04-16T20:17:10.156Z,87.51
2023-04-16T20:19:40.719Z,87.57
2023-04-16T20:22:07.146Z,87.18
2023-04-16T20:24:34.313Z,87.45
2023-04-16T20:27:01.710Z,87.55
2023-04-16T20:29:28.290Z,88.10
2023-04-16T20:31:54.802Z,88.33
2023-04-16T20:34:21.209Z,87.16
2023-04-16T20:36:47.748Z,87.75
2023-04-16T20:39:14.649Z,87.60
2023-04-16T20:41:44.294Z,87.28
2023-04-16T20:44:17.937Z,87.59
2023-04-16T20:46:49.859Z,87.88
2023-04-16T20:49:18.444Z,87.73
2023-04-16T20:51:44.909Z,87.67
2023-04-16T20:54:13.518Z,87.39
2023-04-16T20:56:40.073Z,87.58
2023-04-16T20:59:06.533Z,87.59
2023-04-16T21:01:33.100Z,88.29
2023-04-16T21:03:59.744Z,87.87
2023-04-16T21:06:26.287Z,88.12
2023-04-16T21:08:52.758Z,88.62
2023-04-16T21:11:21.333Z,88.46
2023-04-16T21:13:47.798Z,88.39
2023-04-16T21:16:14.248Z,88.78
2023-04-16T21:18:40.934Z,88.75
2023-04-16T21:21:07.457Z,88.55
2023-04-16T21:23:33.884Z,88.69
2023-04-16T21:26:00.331Z,88.32
2023-04-16T21:28:26.846Z,88.47
2023-04-16T21:30:53.321Z,87.96
2023-04-16T21:33:19.740Z,88.34
2023-04-16T21:35:52.033Z,88.40
2023-04-16T21:38:19.800Z,88.73
2023-04-16T21:40:50.475Z,88.49
2023-04-16T21:43:17.826Z,88.86
2023-04-16T21:45:44.275Z,88.97
2023-04-16T21:48:10.789Z,88.73
2023-04-16T21:50:37.354Z,89.25
2023-04-16T21:53:06.282Z,88.95
2023-04-16T21:55:34.595Z,89.12
2023-04-16T21:58:01.539Z,89.03
2023-04-16T22:00:28.211Z,89.08
2023-04-16T22:02:55.947Z,89.50
2023-04-16T22:05:25.799Z,89.10
2023-04-16T22:07:52.840Z,89.62
2023-04-16T22:10:19.434Z,89.43
2023-04-16T22:12:46.446Z,89.38
2023-04-16T22:15:14.856Z,89.18
2023-04-16T22:17:41.426Z,89.11
2023-04-16T22:20:11.511Z,89.39
2023-04-16T22:22:38.633Z,89.17
2023-04-16T22:25:05.768Z,89.46
2023-04-16T22:27:32.913Z,89.50
2023-04-16T22:30:00.003Z,89.24
2023-04-16T22:32:26.564Z,89.27
2023-04-16T22:34:53.410Z,89.30
2023-04-16T22:37:19.902Z,89.59
2023-04-16T22:39:46.372Z,89.49
2023-04-16T22:42:12.891Z,89.68
2023-04-16T22:44:39.542Z,90.00
2023-04-16T22:47:06.022Z,90.05
2023-04-16T22:49:33.237Z,89.68
2023-04-16T22:52:02.993Z,89.73
2023-04-16T22:54:30.710Z,90.16
2023-04-16T22:56:57.491Z,89.71
2023-04-16T22:59:24.868Z,90.26
2023-04-16T23:01:51.829Z,89.82
2023-04-16T23:04:18.671Z,90.00
2023-04-16T23:06:46.241Z,89.68
2023-04-16T23:09:14.270Z,90.65
2023-04-16T23:11:40.941Z,90.69
2023-04-16T23:14:08.303Z,90.67
2023-04-16T23:16:34.856Z,91.10
2023-04-16T23:19:01.275Z,90.24
2023-04-16T23:21:27.877Z,90.57
2023-04-16T23:23:54.423Z,90.38
2023-04-16T23:26:20.831Z,90.20
2023-04-16T23:28:47.295Z,90.07
2023-04-16T23:31:13.896Z,90.27
2023-04-16T23:33:40.646Z,90.13
2023-04-16T23:36:07.675Z,90.34
2023-04-16T23:38:34.188Z,90.88
2023-04-16T23:41:03.453Z,91.29
2023-04-16T23:43:29.957Z,90.82
2023-04-16T23:45:56.423Z,90.86
2023-04-16T23:48:22.876Z,90.71
2023-04-16T23:50:49.410Z,90.92
2023-04-16T23:53:15.852Z,90.44
2023-04-16T23:55:42.308Z,90.84
2023-04-16T23:58:08.714Z,90.30
